createdAt,value
2018-08-04T00:02:18.354Z,70.20
2018-08-04T00:04:46.601Z,70.30
2018-08-04T00:07:15.508Z,70.40
2018-08-04T00:09:44.458Z,70.90
2018-08-04T00:14:41.044Z,71.20
2018-08-04T00:17:09.616Z,71.40
2018-08-04T00:19:37.843Z,71.40
2018-08-04T00:22:06.093Z,72.40
2018-08-04T00:24:34.995Z,72.00
2018-08-04T00:27:04.518Z,72.30
2018-08-04T00:29:34.311Z,73.10
2018-08-04T00:32:02.865Z,74.70
2018-08-04T00:34:31.536Z,76.20
2018-08-04T00:37:00.121Z,76.90
2018-08-04T00:39:28.389Z,78.50
2018-08-04T00:41:56.979Z,80.00
2018-08-04T00:44:25.589Z,80.50
2018-08-04T00:46:54.803Z,81.50
2018-08-04T00:49:23.575Z,82.20
2018-08-04T00:51:52.128Z,82.90
2018-08-04T00:54:20.705Z,83.60
2018-08-04T00:56:49.268Z,84.50
2018-08-04T00:59:19.566Z,85.50
2018-08-04T01:01:47.805Z,86.20
2018-08-04T01:04:16.043Z,87.00
2018-08-04T01:06:44.637Z,87.80
2018-08-04T01:09:13.222Z,88.40
2018-08-04T01:11:41.468Z,89.10
2018-08-04T01:14:09.716Z,89.80
2018-08-04T01:16:37.981Z,90.10
2018-08-04T01:19:06.902Z,90.50
2018-08-04T01:21:35.839Z,90.70
2018-08-04T01:24:04.776Z,90.90
2018-08-04T01:26:33.688Z,90.90
2018-08-04T01:29:02.254Z,91.10
2018-08-04T01:31:36.732Z,91.20
2018-08-04T01:34:05.584Z,91.50
2018-08-04T01:36:34.326Z,91.70
2018-08-04T01:39:02.916Z,92.00
2018-08-04T01:41:31.164Z,92.10
2018-08-04T01:44:00.027Z,92.30
2018-08-04T01:46:29.180Z,92.60
2018-08-04T01:48:57.451Z,93.00
2018-08-04T01:51:26.049Z,93.30
2018-08-04T01:53:54.749Z,93.80
2018-08-04T01:56:22.998Z,95.00
2018-08-04T01:58:51.327Z,94.90
2018-08-04T02:01:19.591Z,95.60
2018-08-04T02:03:48.164Z,96.20
2018-08-04T02:06:16.732Z,96.50
2018-08-04T02:08:45.630Z,97.30
2018-08-04T02:11:13.865Z,97.60
2018-08-04T02:13:42.437Z,98.30
2018-08-04T02:16:10.997Z,98.80
2018-08-04T02:18:39.581Z,99.50
2018-08-04T02:21:07.829Z,99.90
2018-08-04T02:23:36.755Z,99.90
2018-08-04T02:26:04.997Z,99.90
2018-08-04T02:28:33.945Z,99.90
2018-08-04T02:31:03.221Z,99.90
2018-08-04T02:33:31.486Z,99.90
2018-08-04T02:36:00.458Z,99.90
2018-08-04T02:38:29.557Z,99.90
2018-08-04T02:40:57.853Z,99.90
2018-08-04T02:43:26.582Z,99.90
2018-08-04T02:45:54.823Z,99.90
2018-08-04T02:48:23.066Z,99.90
2018-08-04T02:50:51.605Z,99.90
2018-08-04T02:53:19.873Z,99.90
2018-08-04T02:55:48.127Z,99.90
2018-08-04T02:58:16.983Z,99.90
2018-08-04T03:00:45.261Z,99.90
2018-08-04T03:03:13.553Z,99.90
2018-08-04T03:05:42.158Z,99.90
2018-08-04T03:08:10.742Z,99.90
2018-08-04T03:10:39.019Z,99.90
2018-08-04T03:15:35.285Z,99.90
2018-08-04T03:18:03.896Z,99.90
2018-08-04T03:20:32.391Z,99.90
2018-08-04T03:23:00.654Z,99.90
2018-08-04T03:25:28.907Z,99.90
2018-08-04T03:27:57.205Z,99.90
2018-08-04T03:30:25.482Z,99.90
2018-08-04T03:32:53.827Z,99.90
2018-08-04T03:35:22.911Z,99.90
2018-08-04T03:37:51.481Z,99.90
2018-08-04T03:40:20.633Z,99.90
2018-08-04T03:42:48.865Z,99.90
2018-08-04T03:45:17.110Z,99.90
2018-08-04T03:47:45.702Z,99.90
2018-08-04T03:50:14.312Z,99.90
2018-08-04T03:52:42.881Z,99.90
2018-08-04T03:55:11.769Z,99.90
2018-08-04T03:57:40.960Z,99.90
2018-08-04T04:00:09.214Z,99.90
2018-08-04T04:02:37.457Z,99.90
2018-08-04T04:05:05.929Z,99.90
2018-08-04T04:07:34.266Z,99.90
2018-08-04T04:10:02.517Z,99.90
2018-08-04T04:12:30.758Z,99.90
2018-08-04T04:14:58.994Z,99.90
2018-08-04T04:17:32.234Z,99.90
2018-08-04T04:20:01.150Z,99.90
2018-08-04T04:22:29.397Z,99.90
2018-08-04T04:24:57.982Z,99.90
2018-08-04T04:27:26.226Z,99.90
2018-08-04T04:29:54.457Z,99.90
2018-08-04T04:32:22.685Z,99.90
2018-08-04T04:34:50.898Z,99.90
2018-08-04T04:37:20.309Z,99.90
2018-08-04T04:39:48.880Z,99.90
2018-08-04T04:42:17.440Z,99.90
2018-08-04T04:44:45.669Z,99.90
2018-08-04T04:47:14.085Z,99.90
2018-08-04T04:49:42.385Z,99.90
2018-08-04T04:52:10.943Z,99.90
2018-08-04T04:54:40.771Z,99.90
2018-08-04T04:57:09.405Z,99.90
2018-08-04T04:59:42.890Z,99.90
2018-08-04T05:02:18.897Z,99.90
2018-08-04T05:04:48.966Z,99.90
2018-08-04T05:07:17.931Z,99.90
2018-08-04T05:09:46.360Z,99.90
2018-08-04T05:12:14.673Z,99.90
2018-08-04T05:14:43.249Z,99.90
2018-08-04T05:17:12.461Z,99.90
2018-08-04T05:19:40.693Z,99.90
2018-08-04T05:22:10.368Z,99.90
2018-08-04T05:24:40.859Z,99.90
2018-08-04T05:27:11.179Z,99.90
2018-08-04T05:29:39.425Z,99.90
2018-08-04T05:32:08.025Z,99.90
2018-08-04T05:34:36.419Z,99.90
2018-08-04T05:37:05.295Z,99.90
2018-08-04T05:39:34.195Z,99.90
2018-08-04T05:42:03.111Z,99.90
2018-08-04T05:44:32.723Z,99.90
2018-08-04T05:47:01.873Z,99.90
2018-08-04T05:49:30.745Z,99.90
2018-08-04T05:51:59.946Z,99.90
2018-08-04T05:54:28.926Z,99.90
2018-08-04T05:56:57.685Z,99.90
2018-08-04T05:59:26.592Z,99.90
2018-08-04T06:01:54.821Z,99.90
2018-08-04T06:04:23.762Z,99.90
2018-08-04T06:06:53.421Z,99.90
2018-08-04T06:09:23.066Z,99.90
2018-08-04T06:11:53.069Z,99.90
2018-08-04T06:14:21.382Z,99.90
2018-08-04T06:16:49.996Z,99.90
2018-08-04T06:19:21.807Z,99.90
2018-08-04T06:21:50.636Z,99.90
2018-08-04T06:24:20.070Z,99.90
2018-08-04T06:29:17.101Z,99.90
2018-08-04T06:31:45.655Z,99.90
2018-08-04T06:34:14.321Z,99.90
2018-08-04T06:36:43.152Z,99.90
2018-08-04T06:39:11.445Z,99.90
2018-08-04T06:41:40.468Z,99.90
2018-08-04T06:44:09.186Z,99.90
2018-08-04T06:46:38.088Z,99.90
2018-08-04T06:49:08.071Z,99.90
2018-08-04T06:51:36.690Z,99.90
2018-08-04T06:54:05.985Z,99.90
2018-08-04T06:56:34.237Z,99.90
2018-08-04T06:59:02.538Z,99.90
2018-08-04T07:01:31.460Z,99.90
2018-08-04T07:04:02.774Z,99.90
2018-08-04T07:06:31.126Z,99.90
2018-08-04T07:09:00.698Z,99.90
2018-08-04T07:11:29.353Z,99.90
2018-08-04T07:13:59.125Z,99.90
2018-08-04T07:16:28.099Z,99.90
2018-08-04T07:18:56.374Z,99.90
2018-08-04T07:21:27.530Z,99.90
2018-08-04T07:23:56.477Z,99.90
2018-08-04T07:26:25.725Z,99.90
2018-08-04T07:29:01.004Z,99.90
2018-08-04T07:31:30.153Z,99.90
2018-08-04T07:33:58.438Z,99.80
2018-08-04T07:36:27.546Z,99.50
2018-08-04T07:38:56.484Z,99.30
2018-08-04T07:41:25.077Z,98.90
2018-08-04T07:43:53.358Z,98.50
2018-08-04T07:46:22.258Z,98.00
2018-08-04T07:48:51.829Z,97.60
2018-08-04T07:51:20.446Z,96.70
2018-08-04T07:53:50.091Z,96.40
2018-08-04T07:56:18.713Z,95.80
2018-08-04T07:58:47.013Z,95.50
2018-08-04T08:01:15.585Z,95.10
2018-08-04T08:03:44.262Z,94.70
2018-08-04T08:06:12.897Z,94.10
2018-08-04T08:08:41.516Z,93.70
2018-08-04T08:11:09.803Z,93.20
2018-08-04T08:13:38.551Z,92.70
2018-08-04T08:16:08.194Z,92.30
2018-08-04T08:18:36.799Z,91.70
2018-08-04T08:21:05.375Z,90.50
2018-08-04T08:23:33.961Z,90.10
2018-08-04T08:26:13.496Z,89.20
2018-08-04T08:28:42.393Z,86.60
2018-08-04T08:31:10.745Z,86.50
2018-08-04T08:33:40.455Z,85.70
2018-08-04T08:36:10.362Z,84.50
2018-08-04T08:38:39.025Z,82.30
2018-08-04T08:41:07.646Z,80.90
2018-08-04T08:43:36.253Z,78.60
2018-08-04T08:46:05.173Z,76.10
2018-08-04T08:48:33.760Z,73.60
2018-08-04T08:51:02.030Z,72.20
2018-08-04T08:53:31.066Z,71.70
2018-08-04T08:55:59.619Z,71.10
2018-08-04T08:58:28.221Z,70.30
2018-08-04T09:00:56.458Z,69.60
2018-08-04T09:03:25.925Z,69.70
2018-08-04T09:05:54.161Z,69.70
2018-08-04T09:08:22.777Z,69.10
2018-08-04T09:10:51.000Z,68.90
2018-08-04T09:13:19.916Z,67.90
2018-08-04T09:15:48.866Z,67.00
2018-08-04T09:20:45.503Z,65.50
2018-08-04T09:23:13.789Z,64.60
2018-08-04T09:25:42.989Z,63.60
2018-08-04T09:28:11.999Z,63.10
2018-08-04T09:30:40.231Z,62.40
2018-08-04T09:33:08.804Z,61.20
2018-08-04T09:35:37.055Z,60.30
2018-08-04T09:38:06.805Z,59.40
2018-08-04T09:40:39.514Z,59.20
2018-08-04T09:43:08.781Z,59.30
2018-08-04T09:45:37.073Z,58.10
2018-08-04T09:48:05.689Z,57.70
2018-08-04T09:50:34.267Z,57.30
2018-08-04T09:55:31.513Z,56.20
2018-08-04T09:58:00.129Z,55.90
2018-08-04T10:00:33.784Z,56.00
2018-08-04T10:03:02.394Z,55.20
2018-08-04T10:05:30.964Z,54.20
2018-08-04T10:07:59.924Z,54.40
2018-08-04T10:10:28.883Z,54.50
2018-08-04T10:12:57.710Z,55.00
2018-08-04T10:15:26.602Z,55.30
2018-08-04T10:17:55.508Z,54.70
2018-08-04T10:20:23.806Z,54.30
2018-08-04T10:22:52.499Z,54.40
2018-08-04T10:25:20.793Z,53.70
2018-08-04T10:27:49.079Z,54.40
2018-08-04T10:30:17.330Z,54.30
2018-08-04T10:32:46.111Z,54.00
2018-08-04T10:35:14.841Z,54.50
2018-08-04T10:37:43.093Z,53.10
2018-08-04T10:40:11.655Z,53.10
2018-08-04T10:42:40.216Z,53.60
2018-08-04T10:45:08.797Z,52.90
2018-08-04T10:47:37.297Z,52.80
2018-08-04T10:50:05.653Z,52.90
2018-08-04T10:52:34.249Z,53.00
2018-08-04T10:55:02.796Z,53.20
2018-08-04T10:57:31.009Z,52.70
2018-08-04T11:00:00.585Z,53.00
2018-08-04T11:02:29.368Z,53.30
2018-08-04T11:04:57.922Z,53.10
2018-08-04T11:07:26.188Z,52.70
2018-08-04T11:09:54.574Z,53.20
2018-08-04T11:12:23.954Z,53.30
2018-08-04T11:14:54.032Z,53.70
2018-08-04T11:17:22.829Z,53.90
2018-08-04T11:19:52.006Z,54.40
2018-08-04T11:22:20.906Z,53.90
2018-08-04T11:24:49.754Z,53.70
2018-08-04T11:27:18.679Z,53.60
2018-08-04T11:29:47.148Z,53.70
2018-08-04T11:32:15.751Z,54.00
2018-08-04T11:34:45.197Z,53.70
2018-08-04T11:37:13.451Z,53.30
2018-08-04T11:39:42.053Z,53.30
2018-08-04T11:42:10.336Z,53.70
2018-08-04T11:44:40.615Z,54.00
2018-08-04T11:47:09.253Z,54.00
2018-08-04T11:49:37.843Z,54.50
2018-08-04T11:52:06.113Z,57.00
2018-08-04T11:54:34.661Z,58.30
2018-08-04T11:57:03.217Z,59.10
2018-08-04T11:59:31.785Z,59.60
2018-08-04T12:02:00.375Z,59.90
2018-08-04T12:04:28.764Z,59.20
2018-08-04T12:06:57.869Z,58.30
2018-08-04T12:09:26.484Z,57.40
2018-08-04T12:11:56.157Z,57.30
2018-08-04T12:14:24.405Z,56.90
2018-08-04T12:16:52.952Z,56.60
2018-08-04T12:19:21.200Z,55.90
2018-08-04T12:21:58.441Z,55.50
2018-08-04T12:24:27.002Z,55.40
2018-08-04T12:26:56.330Z,54.80
2018-08-04T12:29:25.076Z,54.00
2018-08-04T12:31:54.301Z,53.90
2018-08-04T12:34:23.159Z,54.00
2018-08-04T12:36:51.713Z,54.10
2018-08-04T12:39:19.941Z,53.80
2018-08-04T12:41:48.866Z,52.20
2018-08-04T12:44:19.452Z,52.20
2018-08-04T12:49:16.950Z,53.30
2018-08-04T12:51:45.470Z,53.60
2018-08-04T12:54:18.398Z,54.20
2018-08-04T12:56:51.819Z,54.50
2018-08-04T12:59:20.370Z,54.30
2018-08-04T13:01:48.961Z,53.40
2018-08-04T13:04:17.791Z,51.50
2018-08-04T13:06:46.581Z,51.60
2018-08-04T13:09:15.165Z,51.30
2018-08-04T13:11:45.080Z,51.20
2018-08-04T13:14:15.375Z,51.60
2018-08-04T13:16:44.234Z,50.70
2018-08-04T13:19:12.864Z,49.40
2018-08-04T13:21:41.838Z,48.80
2018-08-04T13:24:11.087Z,48.30
2018-08-04T13:26:55.922Z,48.70
2018-08-04T13:29:27.209Z,48.40
2018-08-04T13:45:21.350Z,49.00
2018-08-04T13:48:14.277Z,48.60
2018-08-04T13:50:46.615Z,47.90
2018-08-04T13:53:15.834Z,47.60
2018-08-04T13:55:44.766Z,48.00
2018-08-04T13:58:13.921Z,47.70
2018-08-04T14:00:43.263Z,47.70
2018-08-04T14:03:11.887Z,47.70
2018-08-04T14:05:40.515Z,47.90
2018-08-04T14:08:08.774Z,48.10
2018-08-04T14:10:37.993Z,48.20
2018-08-04T14:15:34.974Z,48.30
2018-08-04T14:18:04.315Z,48.40
2018-08-04T14:20:33.779Z,48.60
2018-08-04T14:23:03.125Z,48.10
2018-08-04T14:25:32.058Z,47.90
2018-08-04T14:28:00.714Z,48.00
2018-08-04T14:30:29.322Z,48.70
2018-08-04T14:32:58.348Z,47.80
2018-08-04T14:35:27.339Z,47.40
2018-08-04T14:37:55.613Z,47.60
2018-08-04T14:40:24.205Z,47.80
2018-08-04T14:42:53.450Z,48.10
2018-08-04T14:45:26.499Z,48.30
2018-08-04T14:47:55.090Z,48.20
2018-08-04T14:50:23.342Z,48.30
2018-08-04T14:52:52.448Z,48.20
2018-08-04T14:55:21.440Z,48.20
2018-08-04T14:57:51.364Z,48.40
2018-08-04T15:00:19.624Z,48.60
2018-08-04T15:02:47.909Z,48.80
2018-08-04T15:05:16.824Z,48.60
2018-08-04T15:07:45.089Z,48.90
2018-08-04T15:10:14.123Z,49.60
2018-08-04T15:12:43.347Z,49.40
2018-08-04T15:15:12.264Z,49.50
2018-08-04T15:17:43.377Z,49.50
2018-08-04T15:20:11.600Z,49.10
2018-08-04T15:22:39.881Z,49.50
2018-08-04T15:25:08.753Z,49.80
2018-08-04T15:27:37.376Z,50.80
2018-08-04T15:30:06.231Z,51.50
2018-08-04T15:32:34.829Z,51.90
2018-08-04T15:35:03.074Z,53.50
2018-08-04T15:37:31.318Z,56.30
2018-08-04T15:39:59.545Z,57.70
2018-08-04T15:42:28.289Z,57.00
2018-08-04T15:44:56.851Z,57.50
2018-08-04T15:47:25.352Z,57.70
2018-08-04T15:49:53.594Z,56.70
2018-08-04T15:52:22.183Z,56.30
2018-08-04T15:54:50.431Z,56.70
2018-08-04T15:57:19.646Z,56.90
2018-08-04T15:59:47.864Z,57.10
2018-08-04T17:33:14.333Z,59.80
2018-08-04T17:35:43.493Z,74.90
